Time;durP1;ratioP1;P1;durP2;ratioP2;P2;SDS_P1;SDS_P2;PMS_P1;PMS_P2;Temp;Humidity;BMP_temperature;BMP_pressure;BME280_temperature;BME280_humidity;BME280_pressure;Samples;Min_cycle;Max_cycle;Signal;HPM_P1;HPM_P2
2022/03/17 00:01:25;;;;;;;21.45;10.68;;;12.00;80.80;;;;;;10485319;28;20378;-64
2022/03/17 00:06:27;;;;;;;22.83;10.25;;;12.00;80.80;;;;;;10487602;28;20090;-68
2022/03/17 00:11:28;;;;;;;21.73;11.50;;;12.00;80.80;;;;;;10491436;28;20154;-67
2022/03/17 00:16:31;;;;;;;18.73;10.57;;;12.00;80.90;;;;;;10486625;28;20177;-67
2022/03/17 00:21:31;;;;;;;19.65;11.25;;;12.00;80.90;;;;;;10490136;28;20363;-65
2022/03/17 00:26:34;;;;;;;19.58;10.68;;;12.00;80.90;;;;;;10491273;28;20041;-68
2022/03/17 00:31:37;;;;;;;21.80;10.85;;;12.00;81.00;;;;;;10489847;28;20032;-62
2022/03/17 00:36:38;;;;;;;19.80;10.15;;;12.00;81.00;;;;;;10490935;28;20147;-65
2022/03/17 00:41:40;;;;;;;20.98;10.73;;;12.00;81.00;;;;;;10491003;28;20549;-62
2022/03/17 00:46:41;;;;;;;18.23;10.30;;;12.00;81.00;;;;;;10472422;28;20575;-66
2022/03/17 00:51:42;;;;;;;20.13;10.43;;;12.00;81.10;;;;;;10490114;28;20027;-68
2022/03/17 00:56:43;;;;;;;18.67;10.77;;;12.00;81.10;;;;;;10489966;28;20047;-66
2022/03/17 01:01:44;;;;;;;22.23;11.30;;;12.00;81.20;;;;;;10489897;28;20028;-65
2022/03/17 01:06:45;;;;;;;22.85;11.95;;;12.00;81.20;;;;;;10465773;28;20056;-68
2022/03/17 01:11:46;;;;;;;21.02;10.93;;;12.00;81.20;;;;;;10489294;28;20023;-66
2022/03/17 01:16:47;;;;;;;21.30;11.25;;;12.00;81.20;;;;;;10489040;28;20068;-65
2022/03/17 01:21:50;;;;;;;20.95;11.38;;;11.90;81.30;;;;;;10488519;28;20116;-67
2022/03/17 01:26:50;;;;;;;20.13;11.20;;;12.00;81.40;;;;;;10488404;28;20174;-66
2022/03/17 01:31:51;;;;;;;22.42;11.13;;;11.90;81.40;;;;;;10487941;28;20629;-67
2022/03/17 01:36:52;;;;;;;24.00;12.55;;;11.90;81.40;;;;;;10488417;28;20040;-65
2022/03/17 01:41:57;;;;;;;22.83;12.15;;;11.90;81.50;;;;;;10487876;28;20487;-67
2022/03/17 01:52:18;;;;;;;21.63;12.00;;;11.90;81.70;;;;;;10484998;28;20031;-67
2022/03/17 01:57:20;;;;;;;26.40;12.48;;;11.90;81.80;;;;;;10487385;28;20455;-68
2022/03/17 02:02:21;;;;;;;23.48;12.00;;;11.90;81.90;;;;;;10484913;28;20028;-68
2022/03/17 02:07:23;;;;;;;25.85;12.43;;;11.90;82.10;;;;;;10473436;28;20433;-67
2022/03/17 02:17:43;;;;;;;24.13;13.07;;;11.90;82.40;;;;;;10481154;28;20072;-65
2022/03/17 02:22:49;;;;;;;26.65;14.13;;;11.90;82.50;;;;;;10484758;28;20028;-65
2022/03/17 02:27:50;;;;;;;23.60;12.52;;;11.90;82.70;;;;;;10472222;28;20032;-64
2022/03/17 02:32:59;;;;;;;24.73;12.93;;;11.90;82.80;;;;;;10483059;28;20657;-67
2022/03/17 02:38:02;;;;;;;25.40;13.43;;;11.90;83.00;;;;;;10485816;28;21447;-66
2022/03/17 02:43:05;;;;;;;28.08;14.50;;;11.90;83.00;;;;;;10485823;28;20033;-68
2022/03/17 02:48:05;;;;;;;25.20;13.32;;;11.90;83.10;;;;;;10485353;28;20053;-67
2022/03/17 02:53:07;;;;;;;25.15;13.70;;;11.90;83.10;;;;;;10485670;28;20028;-67
2022/03/17 02:58:09;;;;;;;24.45;13.82;;;11.90;83.30;;;;;;10485459;28;20453;-64
2022/03/17 03:03:10;;;;;;;26.55;14.23;;;11.80;83.30;;;;;;10485265;28;20074;-68
2022/03/17 03:08:11;;;;;;;29.40;13.82;;;11.90;83.50;;;;;;10485429;28;20135;-66
2022/03/17 03:13:12;;;;;;;27.05;13.65;;;11.90;83.60;;;;;;10485930;28;20027;-67
2022/03/17 03:18:13;;;;;;;27.42;14.32;;;11.90;83.60;;;;;;10485592;28;20043;-67
2022/03/17 03:23:14;;;;;;;30.33;14.50;;;11.80;83.60;;;;;;10471854;28;20115;-67
2022/03/17 03:28:15;;;;;;;27.63;14.65;;;11.80;83.70;;;;;;10484563;28;20302;-66
2022/03/17 03:33:16;;;;;;;30.33;14.88;;;11.80;83.80;;;;;;10484264;28;20033;-67
2022/03/17 03:38:18;;;;;;;28.05;14.70;;;11.80;83.80;;;;;;10484546;28;20116;-64
2022/03/17 03:43:19;;;;;;;32.03;15.18;;;11.80;83.90;;;;;;10492499;28;20136;-62
2022/03/17 03:48:20;;;;;;;31.52;16.13;;;11.80;84.00;;;;;;10492572;28;20497;-66
2022/03/17 03:53:21;;;;;;;31.90;15.85;;;11.80;84.10;;;;;;10477277;28;20024;-65
2022/03/17 03:58:23;;;;;;;33.13;16.15;;;11.80;84.20;;;;;;10490798;28;20040;-67
2022/03/17 04:03:24;;;;;;;28.10;15.05;;;11.80;84.30;;;;;;10491169;28;20362;-66
2022/03/17 04:08:24;;;;;;;27.95;14.40;;;11.80;84.40;;;;;;10491971;28;20043;-67
2022/03/17 04:13:25;;;;;;;31.20;14.75;;;11.80;84.50;;;;;;10485702;28;20028;-64
2022/03/17 04:18:26;;;;;;;29.83;15.07;;;11.80;84.60;;;;;;10491684;28;20033;-64
2022/03/17 04:23:26;;;;;;;33.55;15.70;;;11.80;84.80;;;;;;10483305;28;20036;-67
2022/03/17 04:28:27;;;;;;;32.15;15.48;;;11.80;84.90;;;;;;10456411;28;20037;-61
2022/03/17 04:33:28;;;;;;;30.42;14.75;;;11.80;85.20;;;;;;10461290;28;20050;-66
2022/03/17 04:38:28;;;;;;;28.42;14.43;;;11.80;85.40;;;;;;10490184;28;20110;-65
2022/03/17 04:43:29;;;;;;;27.30;13.38;;;11.80;85.40;;;;;;10490387;28;20024;-67
2022/03/17 04:48:30;;;;;;;25.20;12.57;;;11.80;85.70;;;;;;10490312;28;20093;-67
2022/03/17 04:53:32;;;;;;;24.58;12.45;;;11.80;85.80;;;;;;10489481;28;20040;-67
2022/03/17 04:58:34;;;;;;;25.90;12.93;;;11.70;85.90;;;;;;10485204;28;20097;-67
2022/03/17 05:03:35;;;;;;;24.52;13.38;;;11.80;86.10;;;;;;10466427;28;20020;-64
2022/03/17 05:08:36;;;;;;;26.08;12.13;;;11.70;86.10;;;;;;10490559;28;20033;-67
2022/03/17 05:13:39;;;;;;;21.55;11.70;;;11.70;86.30;;;;;;10489974;28;20081;-67
2022/03/17 05:18:40;;;;;;;19.48;10.60;;;11.70;86.40;;;;;;10489793;28;20096;-65
2022/03/17 05:23:41;;;;;;;19.85;9.18;;;11.70;86.50;;;;;;10488418;28;20593;-64
2022/03/17 05:28:41;;;;;;;21.95;11.18;;;11.70;86.60;;;;;;10457106;28;20499;-64
2022/03/17 05:33:42;;;;;;;18.13;9.90;;;11.70;86.60;;;;;;10488411;28;20028;-65
2022/03/17 05:38:43;;;;;;;16.60;8.93;;;11.60;86.70;;;;;;10488438;28;20040;-66
2022/03/17 05:43:43;;;;;;;15.65;8.65;;;11.60;86.90;;;;;;10488249;28;20078;-68
2022/03/17 05:48:44;;;;;;;15.60;8.38;;;11.70;87.00;;;;;;10486166;28;20091;-68
2022/03/17 05:53:45;;;;;;;14.23;7.97;;;11.60;87.00;;;;;;10465070;28;20490;-65
2022/03/17 05:58:46;;;;;;;14.63;7.82;;;11.60;87.00;;;;;;10486463;28;20029;-72
2022/03/17 06:03:46;;;;;;;13.85;7.03;;;11.60;87.00;;;;;;10486062;28;20458;-62
2022/03/17 06:08:47;;;;;;;13.55;6.72;;;11.60;87.00;;;;;;10471709;28;20048;-71
2022/03/17 06:13:48;;;;;;;13.70;6.38;;;11.60;87.00;;;;;;10487563;28;20081;-71
2022/03/17 06:18:49;;;;;;;13.02;6.30;;;11.60;87.00;;;;;;10486456;28;20025;-69
2022/03/17 06:23:53;;;;;;;10.45;5.18;;;11.60;87.10;;;;;;10477374;28;20025;-64
2022/03/17 06:28:54;;;;;;;11.80;4.93;;;11.60;87.30;;;;;;10480498;28;20039;-64
2022/03/17 06:33:55;;;;;;;11.25;4.80;;;11.60;87.20;;;;;;10486511;28;20379;-67
2022/03/17 06:38:55;;;;;;;9.95;4.57;;;11.60;87.10;;;;;;10483811;28;20029;-66
2022/03/17 06:43:56;;;;;;;8.75;4.68;;;11.60;87.50;;;;;;10470475;28;20105;-65
2022/03/17 06:48:57;;;;;;;9.77;3.80;;;11.60;87.30;;;;;;10484731;28;20060;-67
2022/03/17 06:53:58;;;;;;;8.55;4.00;;;11.60;87.40;;;;;;10483835;28;20040;-66
2022/03/17 06:58:58;;;;;;;5.70;3.00;;;11.60;87.50;;;;;;10484440;28;20481;-84
2022/03/17 07:03:59;;;;;;;10.43;3.25;;;11.60;87.50;;;;;;10475291;28;20338;-70
2022/03/17 07:09:00;;;;;;;7.22;3.05;;;11.60;87.60;;;;;;10485247;28;20025;-66
2022/03/17 07:14:00;;;;;;;8.38;2.95;;;11.60;87.60;;;;;;10483508;28;20025;-65
2022/03/17 07:19:01;;;;;;;6.20;2.63;;;11.60;87.60;;;;;;10451457;28;20335;-66
2022/03/17 07:24:03;;;;;;;6.47;2.80;;;11.50;87.50;;;;;;10456178;28;20103;-68
2022/03/17 07:29:03;;;;;;;5.30;2.33;;;11.60;87.60;;;;;;10471526;28;20028;-66
2022/03/17 07:34:05;;;;;;;6.72;2.40;;;11.60;87.60;;;;;;10484464;28;20032;-58
2022/03/17 07:39:06;;;;;;;5.03;2.10;;;11.50;87.60;;;;;;10484410;28;20107;-66
2022/03/17 07:44:07;;;;;;;6.25;2.17;;;11.50;87.60;;;;;;10474015;28;20037;-66
2022/03/17 07:49:08;;;;;;;4.63;1.92;;;11.60;87.60;;;;;;10468002;28;20036;-67
2022/03/17 07:54:09;;;;;;;4.80;1.80;;;11.60;87.60;;;;;;10447887;28;20040;-65
2022/03/17 07:59:10;;;;;;;5.13;1.33;;;11.50;87.60;;;;;;10484620;28;20046;-66
2022/03/17 08:04:11;;;;;;;5.07;1.65;;;11.50;87.60;;;;;;10484252;28;20094;-65
2022/03/17 08:09:11;;;;;;;5.65;2.00;;;11.50;87.50;;;;;;10468008;28;20029;-64
2022/03/17 08:14:14;;;;;;;5.22;1.52;;;11.50;87.60;;;;;;10497739;28;20036;-63
2022/03/17 08:19:14;;;;;;;3.90;1.65;;;11.50;87.50;;;;;;10483313;28;20368;-62
2022/03/17 08:24:15;;;;;;;7.45;1.88;;;11.50;87.60;;;;;;10483033;28;20318;-61
2022/03/17 08:29:16;;;;;;;7.05;1.58;;;11.50;87.40;;;;;;10488701;28;20025;-62
2022/03/17 08:34:17;;;;;;;5.47;1.67;;;11.50;87.30;;;;;;10486692;28;20033;-60
2022/03/17 08:39:17;;;;;;;5.82;2.17;;;11.50;87.30;;;;;;10484373;28;20068;-67
2022/03/17 08:44:19;;;;;;;6.43;2.05;;;11.50;87.20;;;;;;10463613;28;20111;-62
2022/03/17 08:49:19;;;;;;;5.72;1.60;;;11.50;87.20;;;;;;10457148;28;20095;-66
2022/03/17 08:54:25;;;;;;;5.57;1.63;;;11.50;87.10;;;;;;10460361;28;20098;-64
2022/03/17 08:59:30;;;;;;;7.28;1.95;;;11.60;87.10;;;;;;10460272;28;20021;-62
2022/03/17 09:04:32;;;;;;;5.45;1.67;;;11.60;87.00;;;;;;10459740;28;20780;-66
2022/03/17 09:09:36;;;;;;;5.47;1.50;;;11.60;86.80;;;;;;10483717;28;20021;-71
2022/03/17 09:14:40;;;;;;;7.65;1.95;;;11.60;86.80;;;;;;10489358;28;20027;-64
2022/03/17 09:19:41;;;;;;;7.97;1.48;;;11.60;86.90;;;;;;10489532;28;20516;-67
2022/03/17 09:24:41;;;;;;;9.88;1.90;;;11.60;87.00;;;;;;10469851;28;20137;-62
2022/03/17 09:29:42;;;;;;;8.35;1.92;;;11.60;87.00;;;;;;10488095;28;20027;-69
2022/03/17 09:34:43;;;;;;;9.98;1.95;;;11.70;87.20;;;;;;10489026;28;20433;-66
2022/03/17 09:39:47;;;;;;;7.88;1.70;;;11.70;87.00;;;;;;10483284;28;20024;-70
2022/03/17 09:44:52;;;;;;;6.75;1.98;;;11.60;87.00;;;;;;10470090;28;20081;-69
2022/03/17 09:49:56;;;;;;;7.70;1.50;;;11.70;87.10;;;;;;10479450;28;20053;-69
2022/03/17 09:54:57;;;;;;;7.53;1.88;;;11.70;87.00;;;;;;10483115;28;20048;-68
2022/03/17 09:59:58;;;;;;;6.55;2.00;;;11.70;87.00;;;;;;10485463;28;20034;-68
2022/03/17 10:05:00;;;;;;;6.22;1.70;;;11.80;86.90;;;;;;10483409;28;20123;-66
2022/03/17 10:10:02;;;;;;;6.10;1.65;;;11.80;87.30;;;;;;10487386;28;20036;-65
2022/03/17 10:15:03;;;;;;;7.93;1.80;;;11.80;86.50;;;;;;10474480;28;20111;-66
2022/03/17 10:20:34;;;;;;;3.63;1.40;;;11.90;86.30;;;;;;10467747;28;20097;-66
2022/03/17 10:25:34;;;;;;;5.75;1.27;;;12.00;86.20;;;;;;10486348;28;20045;-66
2022/03/17 10:30:36;;;;;;;7.35;1.30;;;12.10;86.10;;;;;;10485308;28;20024;-66
2022/03/17 10:35:38;;;;;;;5.07;1.10;;;12.10;85.70;;;;;;10463067;28;20024;-62
2022/03/17 10:40:40;;;;;;;4.18;1.00;;;12.10;85.30;;;;;;10485272;28;20041;-70
2022/03/17 10:45:42;;;;;;;11.60;1.38;;;12.10;84.30;;;;;;10455103;28;20048;-65
2022/03/17 10:50:43;;;;;;;7.93;1.15;;;11.90;84.00;;;;;;10485172;28;20074;-65
2022/03/17 10:55:44;;;;;;;5.18;1.20;;;11.80;83.40;;;;;;10485930;28;20028;-64
2022/03/17 11:00:53;;;;;;;7.20;1.40;;;11.60;82.60;;;;;;10485509;28;20025;-63
2022/03/17 11:05:55;;;;;;;6.93;1.23;;;11.50;82.30;;;;;;10466461;28;20119;-63
2022/03/17 11:10:57;;;;;;;7.47;1.42;;;11.50;81.90;;;;;;10468795;28;20060;-62
2022/03/17 11:16:08;;;;;;;7.93;1.33;;;11.50;81.20;;;;;;10485533;28;20040;-65
2022/03/17 11:21:25;;;;;;;6.05;1.27;;;11.40;80.50;;;;;;10485668;28;20415;-62
2022/03/17 11:26:34;;;;;;;5.28;1.02;;;11.60;80.30;;;;;;10479285;28;20029;-62
2022/03/17 11:31:57;;;;;;;5.78;1.75;;;11.70;80.00;;;;;;10472915;28;20021;-62
2022/03/17 11:37:37;;;;;;;5.90;1.40;;;11.80;79.20;;;;;;10485432;28;20043;-66
2022/03/17 11:42:42;;;;;;;10.70;1.40;;;11.70;78.70;;;;;;10356077;28;20262;-65
2022/03/17 11:47:48;;;;;;;4.28;1.10;;;11.80;79.50;;;;;;10438113;28;20182;-67
2022/03/17 11:52:57;;;;;;;6.72;1.70;;;11.80;78.60;;;;;;10484367;28;20029;-69
2022/03/17 11:58:16;;;;;;;4.65;1.35;;;11.80;79.20;;;;;;10483861;28;20077;-65
2022/03/17 12:03:25;;;;;;;;;;;11.90;78.90;;;;;;10490829;28;20024;-64
2022/03/17 12:08:32;;;;;;;;;;;11.80;77.50;;;;;;10463777;28;19974;-68
2022/03/17 12:13:36;;;;;;;8.68;1.50;;;11.80;77.40;;;;;;10459439;28;19912;-68
2022/03/17 12:19:02;;;;;;;4.20;1.05;;;11.90;78.90;;;;;;10472070;28;20036;-63
2022/03/17 12:24:03;;;;;;;10.70;1.20;;;11.80;78.50;;;;;;10480996;28;20044;-68
2022/03/17 12:29:04;;;;;;;7.78;1.20;;;12.00;78.50;;;;;;10491248;28;20374;-66
2022/03/17 12:34:06;;;;;;;5.55;1.10;;;12.10;77.90;;;;;;10463814;28;20029;-66
2022/03/17 12:39:06;;;;;;;4.35;1.52;;;12.10;77.50;;;;;;10455998;28;20147;-63
2022/03/17 12:44:07;;;;;;;6.32;1.15;;;12.30;77.10;;;;;;10471165;28;20511;-65
2022/03/17 12:49:08;;;;;;;5.40;1.02;;;12.30;76.00;;;;;;10468147;28;20041;-66
2022/03/17 12:54:09;;;;;;;3.70;0.88;;;12.20;75.90;;;;;;10466221;28;20089;-66
2022/03/17 12:59:09;;;;;;;4.45;0.95;;;12.20;75.80;;;;;;10462757;28;20128;-66
2022/03/17 13:04:10;;;;;;;5.53;1.15;;;12.40;75.40;;;;;;10453491;28;20391;-66
2022/03/17 13:09:11;;;;;;;3.60;1.00;;;12.40;75.00;;;;;;10470773;28;20029;-66
2022/03/17 13:14:22;;;;;;;3.15;1.10;;;12.40;74.70;;;;;;10449053;28;20087;-68
2022/03/17 13:19:22;;;;;;;4.30;1.35;;;12.30;74.90;;;;;;10474580;28;20540;-69
2022/03/17 13:24:23;;;;;;;8.65;1.15;;;12.30;74.50;;;;;;10478580;28;20044;-67
2022/03/17 13:29:24;;;;;;;6.25;1.30;;;12.20;74.40;;;;;;10450414;28;20017;-68
2022/03/17 13:34:34;;;;;;;6.20;1.67;;;12.30;74.40;;;;;;10461833;28;20029;-68
2022/03/17 13:39:36;;;;;;;6.63;0.95;;;12.30;73.50;;;;;;10488935;28;20020;-63
2022/03/17 13:44:45;;;;;;;2.83;1.10;;;12.30;73.80;;;;;;10487218;28;20040;-69
2022/03/17 13:50:07;;;;;;;4.13;0.70;;;12.40;72.40;;;;;;10487665;28;20048;-70
2022/03/17 13:55:16;;;;;;;9.95;1.00;;;12.50;71.80;;;;;;10487935;28;20490;-70
2022/03/17 14:00:23;;;;;;;8.27;1.23;;;12.60;71.40;;;;;;10476126;28;20057;-70
2022/03/17 14:05:24;;;;;;;7.50;0.90;;;12.80;72.30;;;;;;10485945;28;20060;-70
2022/03/17 14:10:25;;;;;;;6.25;0.82;;;12.90;71.50;;;;;;10487524;28;20666;-69
2022/03/17 14:15:26;;;;;;;2.33;0.68;;;13.10;71.50;;;;;;10483857;28;20391;-67
2022/03/17 14:20:27;;;;;;;6.30;0.95;;;13.30;70.80;;;;;;10453811;28;20029;-67
2022/03/17 14:25:28;;;;;;;5.60;0.80;;;13.60;70.50;;;;;;10434855;28;20086;-67
2022/03/17 14:30:28;;;;;;;3.70;0.73;;;13.70;69.70;;;;;;10484867;28;20054;-65
2022/03/17 14:35:29;;;;;;;6.95;0.90;;;13.70;69.20;;;;;;10475553;28;20495;-67
2022/03/17 14:40:30;;;;;;;6.70;1.00;;;13.80;69.50;;;;;;10485329;28;20056;-67
2022/03/17 14:45:31;;;;;;;3.03;0.82;;;13.90;69.30;;;;;;10484698;28;20082;-66
2022/03/17 14:50:32;;;;;;;4.35;0.90;;;14.00;69.20;;;;;;10471125;28;20084;-64
2022/03/17 14:55:33;;;;;;;3.58;0.95;;;14.10;68.50;;;;;;10485255;28;20101;-66
2022/03/17 15:00:34;;;;;;;2.42;0.68;;;14.20;68.40;;;;;;10484126;28;20237;-63
2022/03/17 15:05:36;;;;;;;6.72;1.27;;;14.00;67.90;;;;;;10480748;28;20067;-66
2022/03/17 15:10:37;;;;;;;5.03;0.93;;;14.00;68.20;;;;;;10475043;28;20036;-66
2022/03/17 15:15:38;;;;;;;3.63;0.80;;;14.00;67.70;;;;;;10466959;28;20395;-66
2022/03/17 15:20:39;;;;;;;4.20;0.70;;;14.10;67.80;;;;;;10465514;28;20032;-65
2022/03/17 15:25:39;;;;;;;4.38;0.80;;;13.90;67.90;;;;;;10479563;28;20593;-68
2022/03/17 15:30:42;;;;;;;3.85;0.80;;;13.60;68.40;;;;;;10465170;28;20029;-71
2022/03/17 15:35:43;;;;;;;4.30;0.90;;;13.30;68.80;;;;;;10483467;28;20037;-70
2022/03/17 15:40:45;;;;;;;4.13;0.85;;;12.90;69.00;;;;;;10481053;28;20044;-65
2022/03/17 15:45:46;;;;;;;6.93;0.80;;;12.70;69.50;;;;;;10491328;28;20039;-65
2022/03/17 15:50:48;;;;;;;6.90;0.90;;;12.50;69.90;;;;;;10473941;28;20469;-62
2022/03/17 15:55:49;;;;;;;4.18;1.15;;;12.30;70.30;;;;;;10468104;28;20029;-65
2022/03/17 16:00:49;;;;;;;4.03;0.80;;;12.20;70.30;;;;;;10473762;28;20039;-66
2022/03/17 16:05:50;;;;;;;7.15;0.85;;;12.10;70.40;;;;;;10483903;28;20039;-66
2022/03/17 16:16:11;;;;;;;1.73;0.57;;;11.90;70.90;;;;;;10483840;28;20025;-67
2022/03/17 16:21:12;;;;;;;3.08;0.57;;;11.80;71.00;;;;;;10459642;28;20644;-69
2022/03/17 16:26:13;;;;;;;3.95;0.85;;;11.60;71.20;;;;;;10447563;28;20028;-69
2022/03/17 16:31:19;;;;;;;3.17;1.10;;;11.60;71.60;;;;;;10482246;28;20020;-69
2022/03/17 16:36:21;;;;;;;8.25;1.38;;;11.60;71.70;;;;;;10479886;28;20029;-66
2022/03/17 16:41:22;;;;;;;4.47;1.00;;;11.60;71.90;;;;;;10484971;28;20427;-67
2022/03/17 16:46:22;;;;;;;8.55;1.33;;;11.60;72.00;;;;;;10483983;28;20041;-67
2022/03/17 16:51:23;;;;;;;3.70;1.10;;;11.50;72.10;;;;;;10481978;28;20057;-67
2022/03/17 16:56:24;;;;;;;14.50;2.03;;;11.50;72.20;;;;;;10485793;28;20469;-65
2022/03/17 17:01:25;;;;;;;5.47;1.38;;;11.60;72.30;;;;;;10487601;28;20025;-66
2022/03/17 17:06:26;;;;;;;7.85;1.17;;;11.50;72.40;;;;;;10485643;28;20036;-66
2022/03/17 17:11:27;;;;;;;5.53;1.25;;;11.40;72.60;;;;;;10488305;28;20025;-66
2022/03/17 17:16:27;;;;;;;10.57;1.85;;;11.40;72.70;;;;;;10488247;28;20135;-68
2022/03/17 17:21:28;;;;;;;5.75;1.33;;;11.30;72.90;;;;;;10487946;28;20021;-66
2022/03/17 17:31:49;;;;;;;6.28;1.20;;;11.20;73.50;;;;;;10482507;28;20025;-67
2022/03/17 17:36:50;;;;;;;6.45;1.50;;;11.30;74.10;;;;;;10484259;28;20045;-69
2022/03/17 17:41:54;;;;;;;4.82;1.40;;;11.40;73.90;;;;;;10485718;28;20032;-62
2022/03/17 17:46:55;;;;;;;3.38;1.15;;;11.60;73.90;;;;;;10476429;28;20053;-61
2022/03/17 17:51:56;;;;;;;7.00;1.77;;;11.70;73.90;;;;;;10467940;28;20499;-62
2022/03/17 17:56:56;;;;;;;7.50;1.55;;;11.80;74.00;;;;;;10453456;28;20172;-68
2022/03/17 18:01:57;;;;;;;5.75;1.30;;;11.90;74.10;;;;;;10459862;28;20071;-67
2022/03/17 18:06:58;;;;;;;3.53;1.13;;;11.90;74.20;;;;;;10450674;28;20399;-68
2022/03/17 18:11:59;;;;;;;5.38;1.42;;;12.00;74.30;;;;;;10422805;28;20133;-67
2022/03/17 18:17:02;;;;;;;4.70;1.70;;;12.00;74.40;;;;;;10453741;28;20174;-69
2022/03/17 18:22:03;;;;;;;2.92;1.70;;;11.90;74.50;;;;;;10438682;28;20017;-67
2022/03/17 18:27:04;;;;;;;5.10;1.40;;;12.00;74.60;;;;;;10452745;28;20470;-64
2022/03/17 18:32:05;;;;;;;4.70;1.33;;;12.00;74.70;;;;;;10444551;28;20444;-66
2022/03/17 18:37:06;;;;;;;6.72;1.70;;;12.00;74.80;;;;;;10478256;28;20052;-63
2022/03/17 18:42:08;;;;;;;3.83;1.10;;;12.00;74.90;;;;;;10470769;28;20031;-69
2022/03/17 18:47:09;;;;;;;3.45;1.30;;;12.00;75.00;;;;;;10448527;28;20048;-71
2022/03/17 18:52:10;;;;;;;4.30;1.38;;;12.10;75.20;;;;;;10462630;28;20021;-70
2022/03/17 18:57:11;;;;;;;5.70;1.80;;;11.90;75.10;;;;;;10471736;28;20403;-70
2022/03/17 19:02:12;;;;;;;4.70;1.40;;;11.90;75.20;;;;;;10443933;28;20036;-67
2022/03/17 19:07:13;;;;;;;4.00;1.48;;;11.90;75.30;;;;;;10448707;28;20032;-68
2022/03/17 19:12:14;;;;;;;4.82;1.27;;;11.90;75.40;;;;;;10465207;28;20032;-70
2022/03/17 19:17:15;;;;;;;3.67;1.30;;;11.90;75.40;;;;;;10461313;28;20028;-70
2022/03/17 19:22:16;;;;;;;3.13;1.48;;;11.90;75.50;;;;;;10470950;28;20032;-66
2022/03/17 19:27:17;;;;;;;6.80;1.88;;;11.80;75.50;;;;;;10471900;28;20055;-68
2022/03/17 19:32:18;;;;;;;3.40;1.15;;;11.80;75.60;;;;;;10468777;28;20036;-70
2022/03/17 19:37:20;;;;;;;4.72;1.65;;;11.80;75.60;;;;;;10464156;28;20391;-70
2022/03/17 19:42:22;;;;;;;3.83;1.50;;;11.70;75.60;;;;;;10465247;28;20071;-66
2022/03/17 19:47:22;;;;;;;4.75;1.60;;;11.70;75.60;;;;;;10473831;28;20135;-63
2022/03/17 19:52:23;;;;;;;6.05;1.77;;;11.70;75.60;;;;;;10460534;28;20414;-67
2022/03/17 19:57:25;;;;;;;6.25;1.38;;;11.70;75.60;;;;;;10477979;28;20051;-72
2022/03/17 20:02:27;;;;;;;2.92;1.40;;;11.60;75.60;;;;;;10479446;28;20027;-67
2022/03/17 20:07:28;;;;;;;5.22;1.35;;;11.60;75.70;;;;;;10448422;28;20032;-68
2022/03/17 20:17:50;;;;;;;3.78;1.48;;;11.60;75.70;;;;;;10469413;28;20036;-71
2022/03/17 20:22:53;;;;;;;9.68;1.52;;;11.50;75.70;;;;;;10472661;28;20510;-70
2022/03/17 20:27:54;;;;;;;3.22;1.30;;;11.50;75.80;;;;;;10478931;28;20106;-70
2022/03/17 20:32:55;;;;;;;4.72;2.28;;;11.40;75.80;;;;;;10474894;28;20099;-70
2022/03/17 20:37:55;;;;;;;7.78;1.70;;;11.40;75.80;;;;;;10486978;28;20055;-70
2022/03/17 20:42:56;;;;;;;7.13;2.00;;;11.40;75.80;;;;;;10478514;28;20487;-71
2022/03/17 20:47:57;;;;;;;4.80;1.48;;;11.40;75.90;;;;;;10472607;28;20406;-69
2022/03/17 20:52:58;;;;;;;2.92;1.65;;;11.30;75.90;;;;;;10484802;28;20029;-70
2022/03/17 20:57:58;;;;;;;2.75;1.40;;;11.30;75.90;;;;;;10480468;28;20050;-70
2022/03/17 21:03:00;;;;;;;5.13;1.90;;;11.30;75.90;;;;;;10454549;28;20032;-71
2022/03/17 21:08:00;;;;;;;6.40;2.08;;;11.20;75.90;;;;;;10477177;28;20040;-70
2022/03/17 21:13:03;;;;;;;5.68;1.50;;;11.20;75.90;;;;;;10463044;28;20086;-70
2022/03/17 21:18:04;;;;;;;4.53;1.90;;;11.20;76.00;;;;;;10484161;28;20383;-70
2022/03/17 21:23:04;;;;;;;4.55;2.08;;;11.10;76.00;;;;;;10483776;28;20028;-68
2022/03/17 21:28:05;;;;;;;5.95;1.90;;;11.10;75.90;;;;;;10484566;28;20397;-67
2022/03/17 21:33:06;;;;;;;5.25;1.90;;;11.10;76.60;;;;;;10465898;28;20025;-68
2022/03/17 21:38:09;;;;;;;6.15;2.20;;;11.00;75.90;;;;;;10458149;28;20415;-67
2022/03/17 21:43:10;;;;;;;6.55;2.17;;;11.00;75.90;;;;;;10478377;28;20116;-68
2022/03/17 21:48:11;;;;;;;6.43;2.40;;;11.00;75.90;;;;;;10463070;28;20048;-66
2022/03/17 21:53:12;;;;;;;8.07;2.53;;;11.00;75.80;;;;;;10482367;28;20052;-66
2022/03/17 21:58:12;;;;;;;6.07;2.70;;;10.90;75.80;;;;;;10465093;28;20458;-70
2022/03/17 22:03:13;;;;;;;9.35;2.53;;;10.90;75.70;;;;;;10476019;28;20097;-69
2022/03/17 22:08:14;;;;;;;4.97;2.53;;;10.80;75.70;;;;;;10472167;28;20568;-69
2022/03/17 22:13:15;;;;;;;8.27;2.55;;;10.80;75.70;;;;;;10479862;28;20035;-70
2022/03/17 22:18:15;;;;;;;5.53;2.53;;;10.80;75.70;;;;;;10480728;28;20100;-67
2022/03/17 22:23:17;;;;;;;5.07;2.60;;;10.80;75.70;;;;;;10481697;28;20019;-69
2022/03/17 22:28:18;;;;;;;8.75;2.78;;;10.70;75.70;;;;;;10478863;28;20082;-68
2022/03/17 22:33:18;;;;;;;6.55;2.70;;;10.70;76.40;;;;;;10477734;28;20029;-64
2022/03/17 22:38:19;;;;;;;9.00;2.95;;;10.70;75.80;;;;;;10466330;28;20021;-64
2022/03/17 22:43:20;;;;;;;8.80;2.97;;;10.60;75.80;;;;;;10465485;28;20395;-69
2022/03/17 22:48:21;;;;;;;9.93;3.20;;;10.60;75.80;;;;;;10474046;28;20499;-64
2022/03/17 22:53:21;;;;;;;7.97;3.60;;;10.60;75.90;;;;;;10477337;28;20081;-65
2022/03/17 22:58:22;;;;;;;11.43;3.58;;;10.50;75.80;;;;;;10478873;28;20115;-66
2022/03/17 23:03:23;;;;;;;5.55;3.28;;;10.50;75.80;;;;;;10472240;28;20417;-69
2022/03/17 23:08:24;;;;;;;8.77;3.45;;;10.50;75.90;;;;;;10471842;28;20200;-69
2022/03/17 23:13:26;;;;;;;8.70;3.60;;;10.50;76.00;;;;;;10455585;28;20403;-69
2022/03/17 23:18:26;;;;;;;11.65;3.78;;;10.40;75.90;;;;;;10453647;28;20028;-68
2022/03/17 23:23:27;;;;;;;7.78;3.80;;;10.40;75.90;;;;;;10464070;28;20020;-69
2022/03/17 23:28:28;;;;;;;7.78;3.97;;;10.40;75.90;;;;;;10477336;28;20040;-69
2022/03/17 23:33:32;;;;;;;10.93;4.10;;;10.40;76.00;;;;;;10466242;28;20040;-67
2022/03/17 23:38:41;;;;;;;7.18;4.05;;;10.30;76.00;;;;;;10485656;28;20056;-67
2022/03/17 23:43:42;;;;;;;8.82;3.78;;;10.30;76.60;;;;;;10481715;28;20017;-68
2022/03/17 23:48:43;;;;;;;7.43;3.25;;;10.30;76.10;;;;;;10483931;28;20043;-67
2022/03/17 23:53:44;;;;;;;10.50;3.67;;;10.30;76.10;;;;;;10477077;28;20036;-68
2022/03/17 23:58:44;;;;;;;8.65;3.75;;;10.20;76.10;;;;;;10488070;28;20119;-68
